• Join FlightAware (Why Join?)
  • Login
  • US Flag 
09:42AM EST


 

Airport Tracker/Info


-or-


 

Live Flight TrackerFlight Track Log ✈ N254TM ✈ 22-May-2012 ✈ KJZI - KEXX

Flight Track Log - Related Links

Times and Time Zones

All times are in EDT time to prevent confusion due to time zone crossing. See the N254TM flight status page for this flight to view local times or setup timezone preferences in your user account.

Time Position Orientation Groundspeed Altitude Reporting Facility
EDT Latitude Longitude Course Direction KTS MPH feet Rate Location/Type
08:36PM 32.8433 -79.6561 49° Northeast 156 180 6,200  Level Jacksonville Center
08:41PM 32.9803 -79.4703 54° Northeast 156 180 10,100 780 Climbing Jacksonville Center
08:42PM 33.0083 -79.4247 42° Northeast 161 185 10,900 780 Climbing Jacksonville Center
08:43PM 33.0447 -79.3861 41° Northeast 161 185 11,700 840 Climbing Jacksonville Center
08:44PM 33.0814 -79.3475 35° Northeast 167 192 12,600 840 Climbing Jacksonville Center
08:45PM 33.1219 -79.3136 37° Northeast 172 198 13,400 780 Climbing Jacksonville Center
08:46PM 33.1628 -79.2772 33° Northeast 172 198 14,200 780 Climbing Jacksonville Center
08:47PM 33.2036 -79.2458 29° Northeast 172 198 15,000 360 Climbing Jacksonville Center
08:48PM 33.2547 -79.2114 12° North 182 209 15,000  Level Jacksonville Center
08:49PM 33.3128 -79.1967 354° North 198 228 15,000  Level Jacksonville Center
08:50PM 33.3714 -79.2042 347° North 198 228 15,000  Level Jacksonville Center
08:51PM 33.4261 -79.2194 350° North 203 234 15,000  Level Jacksonville Center
08:52PM 33.4828 -79.2319 340° North 203 234 15,000  Level Jacksonville Center
08:53PM 33.5356 -79.2547 346° North 203 234 15,000  Level Jacksonville Center
08:54PM 33.5925 -79.2722 349° North 208 239 15,000  Level Jacksonville Center
08:55PM 33.6472 -79.2850 345° North 208 239 15,000  Level Jacksonville Center
08:56PM 33.7039 -79.3028 344° North 208 239 15,000  Level Jacksonville Center
08:57PM 33.7567 -79.3206 346° North 208 239 15,000  Level Jacksonville Center
08:58PM 33.8136 -79.3381 346° North 208 239 15,000 -300 Level Jacksonville Center
08:59PM 33.8744 -79.3558 348° North 209 241 14,400 -720 Descending Jacksonville Center
09:00PM 33.9333 -79.3708 353° North 219 252 13,600 -660 Descending Jacksonville Center
09:01PM 33.9983 -79.3808 North 225 259 13,100 -300 Descending Jacksonville Center
09:02PM 34.0567 -79.3758 North 218 251 13,000 -480 Descending Jacksonville Center
09:03PM 34.1150 -79.3736 North 218 251 12,200 -720 Descending Jacksonville Center
09:04PM 34.1772 -79.3686 358° North 218 251 11,600 -600 Descending Jacksonville Center
09:05PM 34.2378 -79.3711 352° North 218 251 11,000 -300 Descending Jacksonville Center
09:06PM 34.2967 -79.3814 314° West 213 245 11,000  Level Jacksonville Center
09:07PM 34.3292 -79.4228 304° West 186 214 11,000  Level Jacksonville Center
09:08PM 34.3575 -79.4744 301° West 178 205 11,000 -60 Level Jacksonville Center
09:09PM 34.3861 -79.5311 299° West 192 221 10,900 -300 Descending Jacksonville Center
09:10PM 34.4128 -79.5906 300° West 197 227 10,500 -480 Descending Jacksonville Center
09:11PM 34.4394 -79.6475 307° West 191 220 10,000 -240 Descending Jacksonville Center
09:20PM 34.7556 -80.1581 341° North 189 217 8,100 -180 Descending Atlanta Center
09:25PM 34.9861 -80.2564 358° North 192 221 8,100  Level Atlanta Center
09:26PM 35.0403 -80.2589 356° North 198 228 8,100 -60 Level Atlanta Center
09:27PM 35.1011 -80.2636 355° North 192 221 8,000  Descending Atlanta Center
09:28PM 35.1556 -80.2689 358° North 194 223 8,100 -180 Climbing Atlanta Center
09:29PM 35.2078 -80.2717 358° North 200 230 7,700 -420 Descending Atlanta Center
09:30PM 35.2703 -80.2739 357° North 207 238 7,300 -360 Descending Atlanta Center
09:38PM 35.7062 -80.2975 357° North  Level FlightAware Approximate